Minnetrista, Minnesota
Current Conditions -  °F | °C
As of 12:27 AM on Monday 24 Nov 2014 (Local Time) from KFCM Reporting Station
Light Snow Light Snow  
Wind Chill: -5°   Ceiling: 2200
Heat Index:   Visibility: 4mi
Dew Point: -2°   Wind: 13mph
Humidity: 85%   Direction: 300°WNW
Pressure: 29.32"   Gusts: 23mph
Location:  44.8587°N, 93.7796°W
Report Text: KFCM 240627Z AUTO 30011G20KT 4SM -SN BR OVC022 00/M02 A2932 RMK AO2 P0000 T00001022
Loading
Personal Weather Stations






























Interactive Weather Map New forecast layout! Learn more

10-Day Weather Forecast

Advertisements
Track Severe Weather on mobile